createdAt,value
2019-03-13T00:02:08.031Z,26.85
2019-03-13T00:04:37.808Z,31.82
2019-03-13T00:07:08.491Z,32.10
2019-03-13T00:09:38.949Z,29.45
2019-03-13T00:12:09.781Z,30.17
2019-03-13T00:14:39.840Z,32.88
2019-03-13T00:17:09.915Z,25.43
2019-03-13T00:19:59.213Z,29.02
2019-03-13T00:22:29.215Z,31.23
2019-03-13T00:24:58.984Z,31.17
2019-03-13T00:27:28.788Z,36.38
2019-03-13T00:29:59.046Z,32.30
2019-03-13T00:32:28.898Z,30.15
2019-03-13T00:34:58.645Z,26.55
2019-03-13T00:37:29.323Z,26.48
2019-03-13T00:39:59.100Z,25.85
2019-03-13T00:42:28.767Z,28.87
2019-03-13T00:44:59.307Z,25.00
2019-03-13T00:47:29.083Z,24.92
2019-03-13T00:49:58.959Z,24.37
2019-03-13T00:52:29.209Z,22.37
2019-03-13T00:54:58.966Z,16.40
2019-03-13T00:57:28.698Z,19.23
2019-03-13T00:59:59.419Z,21.33
2019-03-13T01:02:33.555Z,18.27
2019-03-13T01:05:19.586Z,20.90
2019-03-13T01:07:49.500Z,26.97
2019-03-13T01:10:19.271Z,23.80
2019-03-13T01:12:49.078Z,24.10
2019-03-13T01:15:19.236Z,25.40
2019-03-13T01:17:49.059Z,29.72
2019-03-13T01:20:18.867Z,25.65
2019-03-13T01:22:48.648Z,28.65
2019-03-13T01:25:18.494Z,22.00
2019-03-13T01:27:48.312Z,35.20
2019-03-13T01:30:18.179Z,29.87
2019-03-13T01:32:52.888Z,28.17
2019-03-13T01:35:24.336Z,31.65
2019-03-13T01:37:54.118Z,30.50
2019-03-13T01:40:26.349Z,28.75
2019-03-13T01:42:56.146Z,26.00
2019-03-13T01:45:25.917Z,30.20
2019-03-13T01:47:55.923Z,25.75
2019-03-13T01:50:25.871Z,21.17
2019-03-13T01:52:55.873Z,20.27
2019-03-13T01:55:25.907Z,24.60
2019-03-13T01:57:57.804Z,19.37
2019-03-13T02:00:27.697Z,22.82
2019-03-13T02:02:57.526Z,21.80
2019-03-13T02:05:27.330Z,19.30
2019-03-13T02:07:57.111Z,23.05
2019-03-13T02:10:26.815Z,25.25
2019-03-13T02:12:56.554Z,31.97
2019-03-13T02:15:26.431Z,17.95
2019-03-13T02:17:56.431Z,20.85
2019-03-13T02:20:26.780Z,9.85
2019-03-13T02:22:56.513Z,11.63
2019-03-13T02:25:26.447Z,11.33
2019-03-13T02:27:56.960Z,11.50
2019-03-13T02:30:28.540Z,12.28
2019-03-13T02:32:58.249Z,10.03
2019-03-13T02:35:28.764Z,14.55
2019-03-13T02:37:58.672Z,13.00
2019-03-13T02:40:28.462Z,14.55
2019-03-13T02:42:58.820Z,14.15
2019-03-13T02:45:28.524Z,20.35
2019-03-13T02:47:58.162Z,21.65
2019-03-13T02:50:28.872Z,24.55
2019-03-13T02:52:58.583Z,26.93
2019-03-13T02:55:28.282Z,19.77
2019-03-13T02:57:58.836Z,25.27
2019-03-13T03:00:46.428Z,30.65
2019-03-13T03:03:26.808Z,45.60
2019-03-13T03:05:58.934Z,30.57
2019-03-13T03:08:28.647Z,32.28
2019-03-13T03:10:58.911Z,26.12
2019-03-13T03:13:28.684Z,29.72
2019-03-13T03:15:58.460Z,28.38
2019-03-13T03:18:29.276Z,30.17
2019-03-13T03:20:59.778Z,29.55
2019-03-13T03:23:29.775Z,26.52
2019-03-13T03:25:59.543Z,25.92
2019-03-13T03:28:29.324Z,26.48
2019-03-13T03:30:59.924Z,28.85
2019-03-13T03:33:29.709Z,27.52
2019-03-13T03:35:59.423Z,38.67
2019-03-13T03:38:29.992Z,21.45
2019-03-13T03:40:59.804Z,23.22
2019-03-13T03:43:40.358Z,29.87
2019-03-13T03:46:02.401Z,26.23
2019-03-13T03:48:32.141Z,31.93
2019-03-13T03:51:02.114Z,30.30
2019-03-13T03:53:32.450Z,27.25
2019-03-13T03:56:02.273Z,30.17
2019-03-13T03:58:32.254Z,35.03
2019-03-13T04:01:02.280Z,28.15
2019-03-13T04:03:32.989Z,27.00
2019-03-13T04:06:02.705Z,31.55
2019-03-13T04:08:38.098Z,26.00
2019-03-13T04:11:08.150Z,36.55
2019-03-13T04:13:38.003Z,31.45
2019-03-13T04:16:07.948Z,24.05
2019-03-13T04:18:37.825Z,24.80
2019-03-13T04:21:07.712Z,26.93
2019-03-13T04:23:37.830Z,27.62
2019-03-13T04:26:07.908Z,34.53
2019-03-13T04:28:37.804Z,30.30
2019-03-13T04:31:08.437Z,33.45
2019-03-13T04:33:38.123Z,37.78
2019-03-13T04:36:07.950Z,34.25
2019-03-13T04:38:38.121Z,28.20
2019-03-13T04:41:08.310Z,26.62
2019-03-13T04:43:38.016Z,27.22
2019-03-13T04:46:07.898Z,40.05
2019-03-13T04:48:38.214Z,23.60
2019-03-13T04:51:08.081Z,29.60
2019-03-13T04:53:38.030Z,41.15
2019-03-13T04:56:08.344Z,35.58
2019-03-13T04:58:37.983Z,21.90
2019-03-13T05:01:08.150Z,35.60
2019-03-13T05:03:38.222Z,27.25
2019-03-13T05:06:10.923Z,30.17
2019-03-13T05:08:45.555Z,21.82
2019-03-13T05:11:13.938Z,21.10
2019-03-13T05:13:43.648Z,30.32
2019-03-13T05:16:13.491Z,31.87
2019-03-13T05:18:43.219Z,31.12
2019-03-13T05:21:13.223Z,25.27
2019-03-13T05:23:43.465Z,31.50
2019-03-13T05:26:13.210Z,30.68
2019-03-13T05:28:43.407Z,36.45
2019-03-13T05:31:13.894Z,23.00
2019-03-13T05:33:43.699Z,32.05
2019-03-13T05:36:16.540Z,26.77
2019-03-13T05:38:45.036Z,29.92
2019-03-13T05:41:15.637Z,26.60
2019-03-13T05:43:45.341Z,30.80
2019-03-13T05:46:14.971Z,23.52
2019-03-13T05:48:44.708Z,28.47
2019-03-13T05:51:14.479Z,31.62
2019-03-13T05:53:44.119Z,31.42
2019-03-13T05:56:13.926Z,28.90
2019-03-13T05:58:44.810Z,28.45
2019-03-13T06:01:14.679Z,24.18
2019-03-13T06:03:44.353Z,22.07
2019-03-13T06:06:14.188Z,23.35
2019-03-13T06:08:43.855Z,28.12
2019-03-13T06:11:14.056Z,28.00
2019-03-13T06:13:47.046Z,27.90
2019-03-13T06:16:15.304Z,27.10
2019-03-13T06:18:45.111Z,40.23
2019-03-13T06:21:14.864Z,50.98
2019-03-13T06:23:47.838Z,26.80
2019-03-13T06:26:16.238Z,29.25
2019-03-13T06:28:46.015Z,32.63
2019-03-13T06:31:15.725Z,34.73
2019-03-13T06:33:46.106Z,27.85
2019-03-13T06:36:15.891Z,30.82
2019-03-13T06:38:45.667Z,33.67
2019-03-13T06:41:16.383Z,28.52
2019-03-13T06:43:46.159Z,34.33
2019-03-13T06:46:15.937Z,25.60
2019-03-13T06:48:46.247Z,24.70
2019-03-13T06:51:15.961Z,29.00
2019-03-13T06:53:45.734Z,38.05
2019-03-13T06:56:16.188Z,26.12
2019-03-13T06:58:47.530Z,28.42
2019-03-13T07:01:21.658Z,32.95
2019-03-13T07:03:56.379Z,39.83
2019-03-13T07:06:33.497Z,26.33
2019-03-13T07:09:11.234Z,30.95
2019-03-13T07:11:42.581Z,36.20
2019-03-13T07:14:28.904Z,26.60
2019-03-13T07:17:03.989Z,32.25
2019-03-13T07:19:45.138Z,31.85
2019-03-13T07:22:16.483Z,34.95
2019-03-13T07:24:57.846Z,30.92
2019-03-13T07:27:29.119Z,30.40
2019-03-13T07:30:01.270Z,25.88
2019-03-13T07:32:44.953Z,15.20
2019-03-13T07:35:16.371Z,12.13
2019-03-13T07:38:03.790Z,14.55
2019-03-13T07:40:38.180Z,14.03
2019-03-13T07:43:13.051Z,12.95
2019-03-13T07:45:44.488Z,14.20
2019-03-13T07:48:28.210Z,25.10
2019-03-13T07:51:02.978Z,21.42
2019-03-13T07:53:40.398Z,25.68
2019-03-13T07:56:11.815Z,30.12
2019-03-13T07:59:00.034Z,28.73
2019-03-13T08:01:34.428Z,20.02
2019-03-13T08:04:15.079Z,28.92
2019-03-13T08:06:46.846Z,22.20
2019-03-13T08:09:36.156Z,22.45
2019-03-13T08:12:10.310Z,21.75
2019-03-13T08:14:47.712Z,20.23
2019-03-13T08:17:19.061Z,18.65
2019-03-13T08:20:03.008Z,22.42
2019-03-13T08:22:34.356Z,26.02
2019-03-13T08:25:08.079Z,26.93
2019-03-13T08:27:51.231Z,26.25
2019-03-13T08:30:38.990Z,26.73
2019-03-13T08:33:13.410Z,19.10
2019-03-13T08:35:47.546Z,27.55
2019-03-13T08:38:18.999Z,26.05
2019-03-13T08:40:56.275Z,25.12
2019-03-13T08:43:27.977Z,17.27
2019-03-13T08:46:11.499Z,18.37
2019-03-13T08:48:45.983Z,18.30
2019-03-13T08:51:29.914Z,12.33
2019-03-13T08:54:01.280Z,15.00
2019-03-13T08:56:49.165Z,18.42
2019-03-13T08:59:29.537Z,14.58
2019-03-13T09:02:00.946Z,21.77
2019-03-13T09:04:47.453Z,21.17
2019-03-13T09:07:35.307Z,13.65
2019-03-13T09:10:12.599Z,27.35
2019-03-13T09:12:49.580Z,19.42
2019-03-13T09:15:24.642Z,25.15
2019-03-13T09:18:01.666Z,20.77
2019-03-13T09:20:41.881Z,27.50
2019-03-13T09:23:13.224Z,23.50
2019-03-13T09:25:44.641Z,18.17
2019-03-13T09:28:27.438Z,16.62
2019-03-13T09:31:01.862Z,23.50
2019-03-13T09:33:45.301Z,21.05
2019-03-13T09:36:27.025Z,24.50
2019-03-13T09:38:59.196Z,17.52
2019-03-13T09:41:33.368Z,23.75
2019-03-13T09:44:16.847Z,19.95
2019-03-13T09:46:48.131Z,18.50
2019-03-13T09:49:22.967Z,18.32
2019-03-13T09:51:57.873Z,22.77
2019-03-13T09:54:31.635Z,17.90
2019-03-13T09:57:06.006Z,19.35
2019-03-13T09:59:43.559Z,24.43
2019-03-13T10:02:19.177Z,28.90
2019-03-13T10:04:52.995Z,23.32
2019-03-13T10:07:34.130Z,22.45
2019-03-13T10:10:11.591Z,16.30
2019-03-13T10:12:43.069Z,19.27
2019-03-13T10:15:20.888Z,14.95
2019-03-13T10:18:08.150Z,19.90
2019-03-13T10:20:52.773Z,28.52
2019-03-13T10:23:24.384Z,24.10
2019-03-13T10:26:01.895Z,22.98
2019-03-13T10:28:40.006Z,27.55
2019-03-13T10:31:14.041Z,22.62
2019-03-13T10:33:51.563Z,21.97
2019-03-13T10:36:22.952Z,27.35
2019-03-13T10:39:09.360Z,24.57
2019-03-13T10:41:46.653Z,21.15
2019-03-13T10:44:18.072Z,16.95
2019-03-13T10:47:11.481Z,18.25
2019-03-13T10:49:55.043Z,22.65
2019-03-13T10:52:42.990Z,24.02
2019-03-13T10:55:17.577Z,15.00
2019-03-13T10:58:05.658Z,20.45
2019-03-13T11:00:51.833Z,20.95
2019-03-13T11:03:28.841Z,22.90
2019-03-13T11:06:16.837Z,18.95
2019-03-13T11:08:54.225Z,20.70
2019-03-13T11:11:41.986Z,21.68
2019-03-13T11:14:29.731Z,16.57
2019-03-13T11:17:17.564Z,17.45
2019-03-13T11:19:58.083Z,15.68
2019-03-13T11:22:32.911Z,16.35
2019-03-13T11:25:16.348Z,20.23
2019-03-13T11:27:47.691Z,24.82
2019-03-13T11:30:24.926Z,25.97
2019-03-13T11:33:05.550Z,32.10
2019-03-13T11:35:49.020Z,29.35
2019-03-13T11:38:29.807Z,37.08
2019-03-13T11:41:16.541Z,30.30
2019-03-13T11:43:50.531Z,36.77
2019-03-13T11:46:38.419Z,35.75
2019-03-13T11:49:09.834Z,37.08
2019-03-13T11:51:53.547Z,44.23
2019-03-13T11:54:27.596Z,38.70
2019-03-13T11:56:59.049Z,45.25
2019-03-13T11:59:33.550Z,47.78
2019-03-13T12:02:04.999Z,43.92
2019-03-13T12:04:42.382Z,52.62
2019-03-13T12:07:26.099Z,40.35
2019-03-13T12:10:06.781Z,35.88
2019-03-13T12:12:53.810Z,31.52
2019-03-13T12:15:26.102Z,36.60
2019-03-13T12:17:57.520Z,31.25
2019-03-13T12:20:37.771Z,29.72
2019-03-13T12:23:18.805Z,33.70
2019-03-13T12:26:07.631Z,36.35
2019-03-13T12:28:55.038Z,33.78
2019-03-13T12:31:42.742Z,30.30
2019-03-13T12:34:14.160Z,38.25
2019-03-13T12:36:45.870Z,30.85
2019-03-13T12:39:18.030Z,30.97
2019-03-13T12:42:01.599Z,41.83
2019-03-13T12:44:48.680Z,39.75
2019-03-13T12:47:25.835Z,43.73
2019-03-13T12:49:57.222Z,33.63
2019-03-13T12:52:28.542Z,36.20
2019-03-13T12:55:02.159Z,35.38
2019-03-13T12:57:49.119Z,36.48
2019-03-13T13:00:27.135Z,39.45
2019-03-13T13:03:15.103Z,34.03
2019-03-13T13:05:46.521Z,24.20
2019-03-13T13:08:31.443Z,27.75
2019-03-13T13:11:02.873Z,31.87
2019-03-13T13:13:53.616Z,24.63
2019-03-13T13:16:36.711Z,24.27
2019-03-13T13:19:07.354Z,24.50
2019-03-13T13:21:37.211Z,29.42
2019-03-13T13:24:07.926Z,32.35
2019-03-13T13:26:37.744Z,27.13
2019-03-13T13:29:07.522Z,26.95
2019-03-13T13:31:37.776Z,36.05
2019-03-13T13:34:07.673Z,32.10
2019-03-13T13:36:37.391Z,34.00
2019-03-13T13:39:08.185Z,34.43
2019-03-13T13:41:38.063Z,31.30
2019-03-13T13:44:07.839Z,29.25
2019-03-13T13:46:38.084Z,31.50
2019-03-13T13:49:07.899Z,37.38
2019-03-13T13:51:37.967Z,40.10
2019-03-13T13:54:07.679Z,39.73
2019-03-13T13:56:37.483Z,29.85
2019-03-13T13:59:07.978Z,32.65
2019-03-13T14:01:37.693Z,29.82
2019-03-13T14:04:07.512Z,29.57
2019-03-13T14:06:38.026Z,35.03
2019-03-13T14:09:08.468Z,29.55
2019-03-13T14:11:38.347Z,33.55
2019-03-13T14:14:08.384Z,40.17
2019-03-13T14:16:38.163Z,38.23
2019-03-13T14:19:07.983Z,29.30
2019-03-13T14:21:37.220Z,32.40
2019-03-13T14:24:06.995Z,31.80
2019-03-13T14:26:36.750Z,32.15
2019-03-13T14:29:06.582Z,30.62
2019-03-13T14:31:36.363Z,35.58
2019-03-13T14:34:06.255Z,36.60
2019-03-13T14:36:36.549Z,29.05
2019-03-13T14:39:08.337Z,33.13
2019-03-13T14:41:38.224Z,31.00
2019-03-13T14:44:08.903Z,29.65
2019-03-13T14:46:38.687Z,32.00
2019-03-13T14:49:08.515Z,34.08
2019-03-13T14:51:39.159Z,30.97
2019-03-13T14:54:09.013Z,32.10
2019-03-13T14:56:38.766Z,36.03
2019-03-13T14:59:09.013Z,36.20
2019-03-13T15:01:38.799Z,34.50
2019-03-13T15:04:08.535Z,27.67
2019-03-13T15:06:56.865Z,29.05
2019-03-13T15:09:26.693Z,24.47
2019-03-13T15:11:56.487Z,31.90
2019-03-13T15:14:26.266Z,31.25
2019-03-13T15:16:56.429Z,29.32
2019-03-13T15:19:26.498Z,31.85
2019-03-13T15:21:56.932Z,29.92
2019-03-13T15:24:26.848Z,30.35
2019-03-13T15:26:56.789Z,25.17
2019-03-13T15:29:27.086Z,27.95
2019-03-13T15:31:56.864Z,26.15
2019-03-13T15:34:26.959Z,22.27
2019-03-13T15:39:55.299Z,20.15
2019-03-13T15:42:25.086Z,29.05
2019-03-13T15:44:55.424Z,25.92
2019-03-13T15:47:25.371Z,28.57
2019-03-13T15:49:55.157Z,34.67
2019-03-13T15:52:25.155Z,25.72
2019-03-13T15:54:55.130Z,24.30
2019-03-13T15:57:24.839Z,34.27
2019-03-13T15:59:55.330Z,25.97
2019-03-13T16:02:25.069Z,28.45
2019-03-13T16:04:54.839Z,18.65
2019-03-13T16:07:25.283Z,28.90
2019-03-13T16:09:55.163Z,17.70
2019-03-13T16:12:24.865Z,22.35
2019-03-13T16:14:55.298Z,24.95
2019-03-13T16:17:25.182Z,20.55
2019-03-13T16:19:54.887Z,19.82
2019-03-13T16:22:25.274Z,20.08
2019-03-13T16:24:55.154Z,21.75
2019-03-13T16:27:24.932Z,23.12
2019-03-13T16:29:55.341Z,25.72
2019-03-13T16:32:25.318Z,20.02
2019-03-13T16:34:54.968Z,24.60
2019-03-13T16:37:25.327Z,24.60
2019-03-13T16:39:55.143Z,26.20
2019-03-13T16:42:24.916Z,15.45
2019-03-13T16:44:54.547Z,21.77
2019-03-13T16:47:25.015Z,22.90
2019-03-13T16:49:54.790Z,17.57
2019-03-13T16:52:24.634Z,21.90
2019-03-13T16:54:54.787Z,25.92
2019-03-13T16:57:24.534Z,26.70
2019-03-13T17:00:00.631Z,19.37
2019-03-13T17:02:25.675Z,23.38
2019-03-13T17:04:55.385Z,26.60
2019-03-13T17:07:25.995Z,25.20
2019-03-13T17:09:55.813Z,25.32
2019-03-13T17:12:25.588Z,25.10
2019-03-13T17:14:56.052Z,31.95
2019-03-13T17:17:25.791Z,24.75
2019-03-13T17:19:55.563Z,25.43
2019-03-13T17:22:25.956Z,27.25
2019-03-13T17:24:55.707Z,30.55
2019-03-13T17:27:25.481Z,30.60
2019-03-13T17:29:56.562Z,25.52
2019-03-13T17:32:26.556Z,25.23
2019-03-13T17:34:56.255Z,33.18
2019-03-13T17:37:26.484Z,28.90
2019-03-13T17:39:56.153Z,37.23
2019-03-13T17:42:26.475Z,37.40
2019-03-13T17:44:56.501Z,38.85
2019-03-13T17:47:26.314Z,43.85
2019-03-13T17:49:56.027Z,37.85
2019-03-13T17:52:26.543Z,41.20
2019-03-13T17:54:56.726Z,32.65
2019-03-13T17:57:26.504Z,44.18
2019-03-13T17:59:56.134Z,34.20
2019-03-13T18:02:26.928Z,35.25
2019-03-13T18:04:56.723Z,39.48
2019-03-13T18:07:26.519Z,31.35
2019-03-13T18:09:57.053Z,30.00
2019-03-13T18:12:26.824Z,38.60
2019-03-13T18:14:56.595Z,44.23
2019-03-13T18:17:27.008Z,37.90
2019-03-13T18:19:56.719Z,38.95
2019-03-13T18:22:26.499Z,32.53
2019-03-13T18:24:56.965Z,47.73
2019-03-13T18:27:26.735Z,34.58
2019-03-13T18:29:56.530Z,28.55
2019-03-13T18:32:27.088Z,31.30
2019-03-13T18:34:56.866Z,37.70
2019-03-13T18:37:26.648Z,27.85
2019-03-13T18:39:57.151Z,33.20
2019-03-13T18:42:27.111Z,35.70
2019-03-13T18:44:56.885Z,34.40
2019-03-13T18:47:27.187Z,27.87
2019-03-13T18:49:56.965Z,26.75
2019-03-13T18:52:26.664Z,30.95
2019-03-13T18:54:57.155Z,33.42
2019-03-13T18:57:26.999Z,32.58
2019-03-13T18:59:56.787Z,30.32
2019-03-13T19:02:27.318Z,29.45
2019-03-13T19:04:57.796Z,30.65
2019-03-13T19:07:27.740Z,29.52
2019-03-13T19:09:57.551Z,32.33
2019-03-13T19:12:28.162Z,35.60
2019-03-13T19:14:57.937Z,25.00
2019-03-13T19:17:28.025Z,25.37
2019-03-13T19:19:57.670Z,20.62
2019-03-13T19:22:27.449Z,22.58
2019-03-13T19:24:58.030Z,19.65
2019-03-13T19:27:27.727Z,20.68
2019-03-13T19:29:57.515Z,24.72
2019-03-13T19:32:28.142Z,23.85
2019-03-13T19:34:58.791Z,26.70
2019-03-13T19:37:28.600Z,22.75
2019-03-13T19:39:58.583Z,17.23
2019-03-13T19:42:28.962Z,14.98
2019-03-13T19:44:58.690Z,18.85
2019-03-13T19:47:28.503Z,29.42
2019-03-13T19:49:58.772Z,25.20
2019-03-13T19:52:28.471Z,17.92
2019-03-13T19:54:58.204Z,22.30
2019-03-13T19:57:28.852Z,16.55
2019-03-13T19:59:58.555Z,14.85
2019-03-13T20:02:28.291Z,19.60
2019-03-13T20:04:58.067Z,22.32
2019-03-13T20:07:27.856Z,17.50
2019-03-13T20:09:57.602Z,15.03
2019-03-13T20:12:27.393Z,15.30
2019-03-13T20:14:57.164Z,11.12
2019-03-13T20:17:27.371Z,14.35
2019-03-13T20:19:57.155Z,10.48
2019-03-13T20:22:27.222Z,16.42
2019-03-13T20:24:56.921Z,11.80
2019-03-13T20:27:27.258Z,14.00
2019-03-13T20:29:57.075Z,15.03
2019-03-13T20:32:27.191Z,17.70
2019-03-13T20:34:57.103Z,14.85
2019-03-13T20:37:27.226Z,14.63
2019-03-13T20:39:57.491Z,16.10
2019-03-13T20:42:27.674Z,16.35
2019-03-13T20:44:59.375Z,19.10
2019-03-13T20:47:29.155Z,17.80
2019-03-13T20:49:58.930Z,14.70
2019-03-13T20:52:29.531Z,13.15
2019-03-13T20:55:00.380Z,24.45
2019-03-13T20:57:30.280Z,11.78
2019-03-13T21:00:00.019Z,19.87
2019-03-13T21:02:30.136Z,20.95
2019-03-13T21:04:59.906Z,15.40
2019-03-13T21:07:29.721Z,13.28
2019-03-13T21:10:00.003Z,13.18
2019-03-13T21:12:29.774Z,11.25
2019-03-13T21:14:59.632Z,15.95
2019-03-13T21:17:29.476Z,11.00
2019-03-13T21:19:59.246Z,12.63
2019-03-13T21:22:29.612Z,14.25
2019-03-13T21:25:00.410Z,9.68
2019-03-13T21:27:30.120Z,12.25
2019-03-13T21:29:59.864Z,12.15
2019-03-13T21:32:30.532Z,13.00
2019-03-13T21:35:00.408Z,11.43
2019-03-13T21:37:31.787Z,13.98
2019-03-13T21:40:01.498Z,11.15
2019-03-13T21:42:31.983Z,6.90
2019-03-13T21:45:01.796Z,8.78
2019-03-13T21:47:33.309Z,13.62
2019-03-13T21:50:03.564Z,12.25
2019-03-13T21:52:33.304Z,7.10
2019-03-13T21:55:03.094Z,9.15
2019-03-13T21:57:33.082Z,10.68
2019-03-13T22:00:05.252Z,7.40
2019-03-13T22:02:36.548Z,7.17
2019-03-13T22:05:06.418Z,8.80
2019-03-13T22:07:36.285Z,7.15
2019-03-13T22:10:08.047Z,15.88
2019-03-13T22:12:38.350Z,13.62
2019-03-13T22:15:11.815Z,10.63
2019-03-13T22:17:41.582Z,9.98
2019-03-13T22:20:13.556Z,7.40
2019-03-13T22:22:44.357Z,11.65
2019-03-13T22:25:18.650Z,10.20
2019-03-13T22:27:49.334Z,10.08
2019-03-13T22:30:21.575Z,7.12
2019-03-13T22:32:51.893Z,7.83
2019-03-13T22:35:22.728Z,12.37
2019-03-13T22:37:52.495Z,10.72
2019-03-13T22:40:24.279Z,12.23
2019-03-13T22:42:54.275Z,11.33
2019-03-13T22:45:24.815Z,8.63
2019-03-13T22:47:54.762Z,12.07
2019-03-13T22:50:25.469Z,12.75
2019-03-13T22:52:56.003Z,8.55
2019-03-13T22:55:25.635Z,11.40
2019-03-13T23:01:09.319Z,7.50
2019-03-13T23:03:57.183Z,5.55
2019-03-13T23:06:45.431Z,6.67
2019-03-13T23:09:34.015Z,5.70
2019-03-13T23:12:21.818Z,5.60
2019-03-13T23:15:09.419Z,6.47
2019-03-13T23:17:57.130Z,5.70
2019-03-13T23:20:45.502Z,5.17
2019-03-13T23:23:34.254Z,7.95
2019-03-13T23:26:22.203Z,4.10
2019-03-13T23:29:10.028Z,7.12
2019-03-13T23:31:57.854Z,4.42
2019-03-13T23:34:45.771Z,4.70
2019-03-13T23:37:37.279Z,8.00
2019-03-13T23:40:25.327Z,8.10
2019-03-13T23:43:13.387Z,7.08
2019-03-13T23:46:01.342Z,9.20
2019-03-13T23:48:50.832Z,9.73
2019-03-13T23:51:39.258Z,7.30
2019-03-13T23:54:27.356Z,6.22
2019-03-13T23:57:15.190Z,3.75
